Linch, Wyoming
Current Conditions -  °F | °C
As of 9:53 PM on Saturday 20 Dec 2014 (Local Time) from KCPR Reporting Station
Clear Clear  
Wind Chill: 19°   Ceiling: Unl
Heat Index: 31°   Visibility: 10mi
Dew Point: 24°   Wind: 17mph
Humidity: 76%   Direction: 210°SSW
Pressure: 29.83"   Gusts: NA
Location:  43.61°N, 106.2°W
Report Text: KCPR 210453Z AUTO 21015KT 10SM CLR M01/M04 A2983 RMK AO2 SLP118 T10061044
Loading
Personal Weather Stations






























Interactive Weather Map New forecast layout! Learn more

10-Day Weather Forecast

Advertisements
Track Severe Weather on mobile